Time;durP1;ratioP1;P1;durP2;ratioP2;P2;SDS_P1;SDS_P2;PMS_P1;PMS_P2;Temp;Humidity;BMP_temperature;BMP_pressure;BME280_temperature;BME280_humidity;BME280_pressure;Samples;Min_cycle;Max_cycle;Signal;HPM_P1;HPM_P2
2022/10/31 00:01:55;;;;;;;;;;;17.40;92.60;;;;;;5030115;28;20388;-83
2022/10/31 00:04:20;;;;;;;;;;;17.40;92.50;;;;;;5048311;28;20700;-83
2022/10/31 00:06:46;;;;;;;;;;;17.40;92.70;;;;;;5048374;28;20015;-82
2022/10/31 00:09:12;;;;;;;;;;;17.40;93.10;;;;;;5030102;28;19952;-83
2022/10/31 00:11:37;;;;;;;;;;;17.30;93.40;;;;;;5048045;28;19990;-83
2022/10/31 00:14:03;;;;;;;;;;;17.20;93.70;;;;;;5048415;28;19967;-82
2022/10/31 00:16:29;;;;;;;;;;;17.10;93.80;;;;;;5030320;28;19916;-83
2022/10/31 00:18:55;;;;;;;;;;;17.00;94.30;;;;;;5051178;28;20541;-82
2022/10/31 00:21:21;;;;;;;;;;;17.00;94.50;;;;;;5047846;28;20000;-82
2022/10/31 00:23:47;;;;;;;;;;;16.90;94.70;;;;;;5029938;28;20341;-83
2022/10/31 00:26:12;;;;;;;;;;;16.90;94.90;;;;;;5048048;28;19923;-83
2022/10/31 00:28:38;;;;;;;;;;;16.90;94.70;;;;;;5048645;28;19916;-83
2022/10/31 00:31:04;;;;;;;;;;;16.90;94.60;;;;;;5047863;28;19927;-83
2022/10/31 00:33:30;;;;;;;;;;;16.90;94.70;;;;;;5048618;28;20218;-84
2022/10/31 00:35:56;;;;;;;;;;;17.00;94.50;;;;;;5048085;28;20031;-83
2022/10/31 00:38:21;;;;;;;;;;;17.00;94.30;;;;;;5048328;28;19932;-83
2022/10/31 00:40:47;;;;;;;;;;;17.10;94.30;;;;;;5047499;28;19917;-83
2022/10/31 00:43:12;;;;;;;;;;;17.10;94.30;;;;;;5048174;28;20463;-84
2022/10/31 00:45:37;;;;;;;;;;;17.10;94.10;;;;;;5040731;28;20368;-83
2022/10/31 00:48:04;;;;;;;;;;;17.20;94.30;;;;;;5027181;28;20612;-82
2022/10/31 00:50:30;;;;;;;;;;;17.10;94.30;;;;;;5030358;28;20464;-84
2022/10/31 00:52:56;;;;;;;;;;;17.10;94.40;;;;;;5028369;28;19924;-84
2022/10/31 00:55:22;;;;;;;;;;;17.10;94.30;;;;;;5029049;28;19982;-84
2022/10/31 00:57:47;;;;;;;;;;;17.10;94.40;;;;;;5044960;28;19916;-84
2022/10/31 01:00:13;;;;;;;;;;;17.10;94.50;;;;;;5029091;28;19921;-84
2022/10/31 01:02:39;;;;;;;;;;;17.10;94.50;;;;;;5029193;28;19966;-84
2022/10/31 01:05:04;;;;;;;;;;;17.10;94.60;;;;;;5047797;28;20620;-83
2022/10/31 01:07:30;;;;;;;;;;;17.00;94.60;;;;;;5047494;28;20707;-83
2022/10/31 01:09:55;;;;;;;;;;;17.00;94.70;;;;;;5047249;28;19917;-84
2022/10/31 01:12:21;;;;;;;;;;;17.10;94.60;;;;;;5047882;28;20457;-85
2022/10/31 01:14:46;;;;;;;;;;;17.00;94.70;;;;;;5029072;28;20404;-84
2022/10/31 01:17:12;;;;;;;;;;;17.00;94.90;;;;;;5031592;28;20008;-83
2022/10/31 01:19:38;;;;;;;;;;;17.00;94.80;;;;;;5048422;28;19988;-82
2022/10/31 01:22:04;;;;;;;;;;;16.90;95.00;;;;;;5047480;28;20360;-82
2022/10/31 01:24:29;;;;;;;;;;;16.80;95.10;;;;;;5047307;28;19917;-82
2022/10/31 01:26:55;;;;;;;;;;;16.90;95.20;;;;;;5047184;28;19956;-83
2022/10/31 01:29:20;;;;;;;;;;;16.80;95.40;;;;;;5047253;28;20031;-81
2022/10/31 01:31:46;;;;;;;;;;;16.80;95.40;;;;;;5029253;28;19913;-82
2022/10/31 01:34:15;;;;;;;;;;;16.70;95.60;;;;;;5046741;28;19954;-82
2022/10/31 01:36:41;;;;;;;;;;;16.70;95.70;;;;;;5046654;28;20320;-82
2022/10/31 01:39:08;;;;;;;;;;;16.60;95.90;;;;;;5029155;28;19920;-82
2022/10/31 01:41:35;;;;;;;;;;;16.60;96.00;;;;;;5028886;28;20451;-82
2022/10/31 01:44:03;;;;;;;;;;;16.50;96.10;;;;;;5047433;28;19920;-84
2022/10/31 01:46:36;;;;;;;;;;;16.40;96.40;;;;;;5035660;28;19994;-85
2022/10/31 01:49:05;;;;;;;;;;;16.50;96.40;;;;;;5029619;28;19920;-86
2022/10/31 01:51:36;;;;;;;;;;;16.50;96.30;;;;;;5047056;28;19943;-85
2022/10/31 01:54:04;;;;;;;;;;;16.50;96.60;;;;;;5044726;28;19950;-85
2022/10/31 01:56:30;;;;;;;;;;;16.60;96.20;;;;;;5045781;28;19942;-84
2022/10/31 01:58:57;;;;;;;;;;;16.70;96.10;;;;;;5047235;28;20003;-85
2022/10/31 02:01:22;;;;;;;;;;;16.50;96.30;;;;;;5047083;28;20004;-85
2022/10/31 02:03:48;;;;;;;;;;;16.40;96.50;;;;;;5047372;28;20401;-86
2022/10/31 02:06:19;;;;;;;;;;;16.30;96.90;;;;;;5028180;28;19921;-85
2022/10/31 02:08:45;;;;;;;;;;;16.30;97.00;;;;;;5046489;28;19924;-85
2022/10/31 02:11:11;;;;;;;;;;;16.50;96.80;;;;;;5047603;28;20011;-85
2022/10/31 02:13:36;;;;;;;;;;;16.60;96.50;;;;;;5051551;28;20004;-85
2022/10/31 02:16:02;;;;;;;;;;;16.70;96.20;;;;;;5051228;28;20419;-86
2022/10/31 02:18:30;;;;;;;;;;;16.60;96.30;;;;;;5051686;28;19916;-85
2022/10/31 02:21:16;;;;;;;;;;;16.40;96.70;;;;;;5050508;28;20826;-85
2022/10/31 02:23:42;;;;;;;;;;;16.30;97.10;;;;;;5048198;28;19924;-85
2022/10/31 02:26:07;;;;;;;;;;;16.30;97.20;;;;;;5051243;28;19925;-85
2022/10/31 02:28:52;;;;;;;;;;;16.20;97.60;;;;;;5051160;28;19982;-84
2022/10/31 02:31:33;;;;;;;;;;;16.20;97.40;;;;;;5051135;28;19917;-84
2022/10/31 02:34:02;;;;;;;;;;;16.10;97.60;;;;;;5050680;28;19917;-85
2022/10/31 02:36:40;;;;;;;;;;;16.10;97.70;;;;;;5046215;28;19923;-85
2022/10/31 02:39:05;;;;;;;;;;;16.20;97.50;;;;;;5050320;28;19973;-84
2022/10/31 02:41:31;;;;;;;;;;;16.30;97.30;;;;;;5049837;28;19920;-84
2022/10/31 02:44:06;;;;;;;;;;;16.40;97.20;;;;;;5050869;28;19916;-84
2022/10/31 02:46:32;;;;;;;;;;;16.40;97.10;;;;;;5020063;28;19920;-84
2022/10/31 02:49:00;;;;;;;;;;;16.40;96.90;;;;;;5050378;28;19923;-84
2022/10/31 02:51:25;;;;;;;;;;;16.40;96.80;;;;;;5030936;28;19913;-83
2022/10/31 02:53:51;;;;;;;;;;;16.40;96.80;;;;;;5050059;28;19927;-83
2022/10/31 02:56:17;;;;;;;;;;;16.40;96.70;;;;;;5049281;28;19912;-84
2022/10/31 02:58:47;;;;;;;;;;;16.40;96.60;;;;;;5050546;28;19917;-84
2022/10/31 03:01:19;;;;;;;;;;;16.40;96.70;;;;;;5049669;28;20004;-84
2022/10/31 03:03:47;;;;;;;;;;;16.40;96.70;;;;;;5049921;28;19917;-83
2022/10/31 03:06:31;;;;;;;;;;;16.30;96.80;;;;;;5050277;28;19956;-83
2022/10/31 03:09:02;;;;;;;;;;;16.20;97.10;;;;;;5032745;28;19917;-83
2022/10/31 03:11:48;;;;;;;;;;;16.10;97.20;;;;;;5049247;28;19948;-82
2022/10/31 03:14:26;;;;;;;;;;;16.10;97.20;;;;;;5048672;28;19924;-82
2022/10/31 03:16:53;;;;;;;;;;;16.10;97.30;;;;;;5044352;28;20074;-83
2022/10/31 03:19:48;;;;;;;;;;;16.00;97.40;;;;;;5053794;28;19916;-82
2022/10/31 03:22:17;;;;;;;;;;;16.00;97.60;;;;;;5011556;28;19919;-83
2022/10/31 03:24:44;;;;;;;;;;;15.90;97.70;;;;;;5044365;28;19918;-86
2022/10/31 03:27:13;;;;;;;;;;;15.90;97.70;;;;;;5048812;28;20825;-86
2022/10/31 03:29:40;;;;;;;;;;;15.80;97.80;;;;;;5049346;28;19950;-86
2022/10/31 03:32:05;;;;;;;;;;;15.80;98.00;;;;;;5049895;28;20363;-86
2022/10/31 03:34:31;;;;;;;;;;;15.80;98.10;;;;;;5048403;28;19928;-83
2022/10/31 03:36:59;;;;;;;;;;;15.90;97.90;;;;;;5048765;28;19923;-83
2022/10/31 03:39:26;;;;;;;;;;;15.90;97.80;;;;;;5031732;28;19916;-85
2022/10/31 03:41:54;;;;;;;;;;;15.90;97.90;;;;;;5049513;28;19994;-85
2022/10/31 03:44:21;;;;;;;;;;;15.90;97.90;;;;;;5049617;28;19938;-85
2022/10/31 03:46:47;;;;;;;;;;;15.80;98.20;;;;;;5036812;28;20007;-84
2022/10/31 03:49:13;;;;;;;;;;;15.80;98.30;;;;;;5049635;28;20023;-84
2022/10/31 03:51:38;;;;;;;;;;;15.60;98.70;;;;;;5031334;28;19913;-85
2022/10/31 03:54:08;;;;;;;;;;;15.60;98.80;;;;;;5049562;28;19913;-85
2022/10/31 03:56:36;;;;;;;;;;;15.70;98.70;;;;;;5047694;28;19924;-85
2022/10/31 03:59:04;;;;;;;;;;;15.70;98.80;;;;;;5049400;28;19923;-85
2022/10/31 04:01:31;;;;;;;;;;;15.60;98.80;;;;;;5030443;28;20551;-85
2022/10/31 04:03:57;;;;;;;;;;;15.70;99.00;;;;;;5049329;28;20395;-86
2022/10/31 04:06:24;;;;;;;;;;;15.70;98.90;;;;;;5048993;28;20011;-88
2022/10/31 04:08:53;;;;;;;;;;;15.70;98.80;;;;;;5049467;28;19956;-88
2022/10/31 04:11:21;;;;;;;;;;;15.70;98.80;;;;;;5049194;28;19916;-88
2022/10/31 04:13:48;;;;;;;;;;;15.70;99.10;;;;;;5049593;28;19916;-86
2022/10/31 04:16:14;;;;;;;;;;;15.60;99.30;;;;;;5048568;28;19928;-86
2022/10/31 04:18:40;;;;;;;;;;;15.50;99.70;;;;;;5052481;28;19952;-84
2022/10/31 04:21:06;;;;;;;;;;;15.30;99.90;;;;;;5048777;28;19920;-84
2022/10/31 04:23:32;;;;;;;;;;;15.30;99.90;;;;;;5048049;28;19960;-84
2022/10/31 04:25:58;;;;;;;;;;;15.20;99.90;;;;;;5048295;28;19921;-83
2022/10/31 04:28:23;;;;;;;;;;;15.20;99.90;;;;;;5048607;28;19917;-83
2022/10/31 04:30:49;;;;;;;;;;;15.20;99.90;;;;;;5047629;28;19962;-84
2022/10/31 04:33:15;;;;;;;;;;;15.10;99.90;;;;;;5048309;28;19979;-84
2022/10/31 04:35:41;;;;;;;;;;;15.00;99.90;;;;;;5030172;28;20725;-84
2022/10/31 04:38:06;;;;;;;;;;;15.10;99.90;;;;;;5048658;28;19962;-85
2022/10/31 04:40:32;;;;;;;;;;;15.00;99.90;;;;;;5048647;28;19917;-83
2022/10/31 04:42:57;;;;;;;;;;;15.20;99.90;;;;;;5048598;28;19924;-84
2022/10/31 04:45:23;;;;;;;;;;;15.30;99.90;;;;;;5042499;28;20439;-86
2022/10/31 04:47:48;;;;;;;;;;;15.40;99.90;;;;;;5042988;28;19917;-85
2022/10/31 04:50:14;;;;;;;;;;;15.30;99.90;;;;;;5047268;28;19949;-85
2022/10/31 04:52:40;;;;;;;;;;;15.30;99.90;;;;;;5048458;28;19920;-85
2022/10/31 04:55:06;;;;;;;;;;;15.30;99.90;;;;;;5047686;28;20351;-85
2022/10/31 04:57:31;;;;;;;;;;;15.30;99.90;;;;;;5029731;28;19924;-86
2022/10/31 04:59:57;;;;;;;;;;;15.30;99.90;;;;;;5047662;28;19961;-86
2022/10/31 05:02:22;;;;;;;;;;;15.20;99.90;;;;;;5047645;28;19916;-85
2022/10/31 05:04:48;;;;;;;;;;;15.20;99.90;;;;;;5029334;28;19917;-84
2022/10/31 05:07:13;;;;;;;;;;;15.10;99.90;;;;;;5047526;28;19917;-84
2022/10/31 05:09:39;;;;;;;;;;;15.00;99.90;;;;;;5028618;28;19923;-84
2022/10/31 05:12:04;;;;;;;;;;;14.90;99.90;;;;;;5047031;28;19917;-84
2022/10/31 05:14:30;;;;;;;;;;;14.80;99.90;;;;;;5046841;28;19921;-84
2022/10/31 05:16:55;;;;;;;;;;;14.70;99.90;;;;;;5029539;28;19946;-84
2022/10/31 05:19:21;;;;;;;;;;;14.70;99.90;;;;;;5050501;28;19921;-84
2022/10/31 05:21:46;;;;;;;;;;;14.80;99.90;;;;;;5029724;28;20634;-84
2022/10/31 05:24:12;;;;;;;;;;;14.70;99.90;;;;;;5047464;28;19952;-84
2022/10/31 05:26:37;;;;;;;;;;;14.70;99.90;;;;;;5047627;28;19980;-84
2022/10/31 05:29:03;;;;;;;;;;;14.70;99.90;;;;;;5047110;28;19924;-85
2022/10/31 05:31:28;;;;;;;;;;;14.70;99.90;;;;;;5047264;28;20572;-85
2022/10/31 05:33:54;;;;;;;;;;;14.70;99.90;;;;;;5047242;28;20668;-85
2022/10/31 05:36:19;;;;;;;;;;;14.70;99.90;;;;;;5047151;28;20486;-83
2022/10/31 05:38:45;;;;;;;;;;;14.70;99.90;;;;;;5047227;28;19920;-88
2022/10/31 05:41:10;;;;;;;;;;;14.70;99.90;;;;;;5028967;28;19913;-86
2022/10/31 05:43:36;;;;;;;;;;;14.70;99.90;;;;;;5046848;28;19916;-91
2022/10/31 05:46:02;;;;;;;;;;;14.60;99.90;;;;;;5024145;28;19924;-89
2022/10/31 05:48:28;;;;;;;;;;;14.60;99.90;;;;;;5048352;28;19912;-90
2022/10/31 05:50:53;;;;;;;;;;;14.60;99.90;;;;;;5028725;28;19913;-92
2022/10/31 05:53:19;;;;;;;;;;;14.60;99.90;;;;;;5032219;28;19919;-91
2022/10/31 05:55:44;;;;;;;;;;;14.50;99.90;;;;;;5029133;28;19924;-88
2022/10/31 05:58:10;;;;;;;;;;;14.40;99.90;;;;;;5047760;28;19913;-94
2022/10/31 06:00:36;;;;;;;;;;;14.40;99.90;;;;;;5030003;28;19916;-92
2022/10/31 06:03:03;;;;;;;;;;;14.30;99.90;;;;;;5028913;28;19921;-92
2022/10/31 06:05:29;;;;;;;;;;;14.20;99.90;;;;;;5053011;28;19959;-94
2022/10/31 06:07:55;;;;;;;;;;;14.20;99.90;;;;;;5053552;28;19913;-93
2022/10/31 06:10:20;;;;;;;;;;;14.20;99.90;;;;;;5034722;28;20733;-93
2022/10/31 06:12:46;;;;;;;;;;;14.20;99.90;;;;;;5051406;28;19939;-89
2022/10/31 06:15:12;;;;;;;;;;;14.20;99.90;;;;;;5048485;28;19928;-86
2022/10/31 06:17:38;;;;;;;;;;;14.30;99.90;;;;;;5029861;28;19913;-90
2022/10/31 06:20:04;;;;;;;;;;;14.40;99.90;;;;;;5029047;28;19935;-86
2022/10/31 06:22:29;;;;;;;;;;;14.60;99.90;;;;;;5047725;28;19913;-87
2022/10/31 06:24:55;;;;;;;;;;;14.70;99.90;;;;;;5047626;28;19924;-86
2022/10/31 06:27:20;;;;;;;;;;;14.90;99.90;;;;;;5047881;28;19970;-85
2022/10/31 06:29:46;;;;;;;;;;;15.10;99.90;;;;;;5047936;28;19913;-91
2022/10/31 06:32:12;;;;;;;;;;;15.10;99.90;;;;;;5030093;28;19921;-88
2022/10/31 06:34:38;;;;;;;;;;;15.00;99.90;;;;;;5047799;28;19913;-88
2022/10/31 06:37:05;;;;;;;;;;;15.10;99.90;;;;;;5024599;28;19916;-89
2022/10/31 06:39:30;;;;;;;;;;;15.00;99.90;;;;;;5049240;28;20552;-88
2022/10/31 06:41:56;;;;;;;;;;;15.10;99.90;;;;;;5044834;28;19912;-86
2022/10/31 06:44:21;;;;;;;;;;;15.00;99.90;;;;;;5046586;28;19921;-85
2022/10/31 06:46:47;;;;;;;;;;;14.90;99.90;;;;;;5017577;28;19966;-84
2022/10/31 06:49:13;;;;;;;;;;;15.00;99.90;;;;;;5046464;28;19961;-81
2022/10/31 06:51:38;;;;;;;;;;;15.20;99.90;;;;;;5045379;28;19917;-79
2022/10/31 06:54:04;;;;;;;;;;;15.20;99.90;;;;;;5045930;28;19913;-80
2022/10/31 06:56:29;;;;;;;;;;;15.30;99.90;;;;;;5046578;28;19913;-80
2022/10/31 06:58:55;;;;;;;;;;;15.70;99.90;;;;;;5051341;28;19913;-80
2022/10/31 07:01:20;;;;;;;;;;;15.90;99.90;;;;;;5050599;28;19934;-79
2022/10/31 07:03:46;;;;;;;;;;;16.20;99.90;;;;;;5033087;28;19913;-80
2022/10/31 07:06:11;;;;;;;;;;;16.20;99.90;;;;;;5031705;28;19921;-81
2022/10/31 07:08:37;;;;;;;;;;;16.20;99.90;;;;;;5049985;28;19923;-81
2022/10/31 07:11:03;;;;;;;;;;;16.40;99.90;;;;;;5050293;28;19919;-80
2022/10/31 07:13:28;;;;;;;;;;;16.50;99.90;;;;;;5045149;28;19924;-83
2022/10/31 07:15:55;;;;;;;;;;;16.50;99.90;;;;;;5048646;28;19921;-85
2022/10/31 07:18:20;;;;;;;;;;;16.60;99.80;;;;;;5019947;28;19920;-84
2022/10/31 07:20:46;;;;;;;;;;;16.90;99.20;;;;;;5044081;28;19913;-88
2022/10/31 07:23:12;;;;;;;;;;;17.60;97.90;;;;;;5042996;28;20029;-83
2022/10/31 07:25:38;;;;;;;;;;;18.00;96.60;;;;;;5038139;28;19928;-85
2022/10/31 07:28:04;;;;;;;;;;;18.30;95.80;;;;;;5046773;28;20370;-83
2022/10/31 07:30:30;;;;;;;;;;;18.50;95.00;;;;;;5032176;28;20023;-83
2022/10/31 07:32:55;;;;;;;;;;;18.60;94.60;;;;;;5020555;28;19921;-90
2022/10/31 07:35:22;;;;;;;;;;;18.70;94.40;;;;;;5030531;28;19916;-82
2022/10/31 07:37:48;;;;;;;;;;;18.50;94.90;;;;;;5049614;28;19917;-80
2022/10/31 07:40:14;;;;;;;;;;;18.40;94.50;;;;;;5041586;28;19924;-82
2022/10/31 07:42:41;;;;;;;;;;;18.30;94.70;;;;;;5024560;28;19913;-82
2022/10/31 07:45:07;;;;;;;;;;;18.00;95.20;;;;;;5039190;28;20712;-81
2022/10/31 07:47:40;;;;;;;;;;;18.20;95.20;;;;;;5032156;28;19923;-82
2022/10/31 07:50:06;;;;;;;;;;;18.60;94.30;;;;;;5019979;28;20716;-82
2022/10/31 07:52:32;;;;;;;;;;;18.60;94.10;;;;;;5046149;28;19924;-80
2022/10/31 07:54:57;;;;;;;;;;;18.90;93.70;;;;;;5036315;28;19921;-81
2022/10/31 07:57:23;;;;;;;;;;;18.90;93.30;;;;;;5033195;28;19986;-81
2022/10/31 07:59:48;;;;;;;;;;;19.40;93.10;;;;;;5013994;28;19963;-81
2022/10/31 08:02:14;;;;;;;;;;;19.10;92.70;;;;;;5014426;28;20006;-81
2022/10/31 08:04:39;;;;;;;;;;;18.60;93.40;;;;;;5020447;28;19959;-82
2022/10/31 08:07:05;;;;;;;;;;;18.30;94.00;;;;;;5028751;28;19927;-81
2022/10/31 08:09:30;;;;;;;;;;;18.10;94.70;;;;;;5022146;28;20358;-81
2022/10/31 08:11:56;;;;;;;;;;;18.00;94.90;;;;;;5036582;28;20525;-82
2022/10/31 08:14:22;;;;;;;;;;;18.20;94.70;;;;;;5028676;28;19948;-82
2022/10/31 08:16:47;;;;;;;;;;;18.10;94.90;;;;;;5047860;28;19962;-81
2022/10/31 08:19:13;;;;;;;;;;;18.50;94.50;;;;;;5028908;28;19959;-82
2022/10/31 08:21:39;;;;;;;;;;;18.70;94.10;;;;;;5029436;28;19913;-82
2022/10/31 08:24:05;;;;;;;;;;;19.10;93.30;;;;;;5029106;28;19963;-81
2022/10/31 08:26:30;;;;;;;;;;;19.40;92.70;;;;;;5013460;28;19921;-82
2022/10/31 08:28:56;;;;;;;;;;;19.80;92.30;;;;;;5033977;28;20020;-82
2022/10/31 08:31:22;;;;;;;;;;;19.50;92.40;;;;;;5013913;28;19917;-82
2022/10/31 08:33:48;;;;;;;;;;;19.90;92.30;;;;;;5021431;28;20689;-82
2022/10/31 08:36:14;;;;;;;;;;;20.30;91.50;;;;;;5048756;28;19963;-81
2022/10/31 08:38:39;;;;;;;;;;;20.40;91.20;;;;;;5047161;28;19920;-81
2022/10/31 08:41:05;;;;;;;;;;;20.60;90.80;;;;;;5048055;28;20420;-81
2022/10/31 08:43:30;;;;;;;;;;;20.40;90.70;;;;;;5048174;28;19913;-82
2022/10/31 08:45:56;;;;;;;;;;;20.80;90.10;;;;;;5038268;28;19956;-82
2022/10/31 08:48:21;;;;;;;;;;;20.80;90.40;;;;;;5047780;28;20003;-82
2022/10/31 08:50:47;;;;;;;;;;;20.90;90.20;;;;;;5049283;28;19916;-82
2022/10/31 08:53:16;;;;;;;;;;;21.00;89.60;;;;;;5048081;28;19916;-81
2022/10/31 08:55:43;;;;;;;;;;;20.90;89.50;;;;;;5048041;28;20347;-82
2022/10/31 08:58:26;;;;;;;;;;;20.70;90.10;;;;;;5047890;28;19917;-82
2022/10/31 09:00:52;;;;;;;;;;;20.90;89.60;;;;;;5027235;28;20799;-81
2022/10/31 09:03:20;;;;;;;;;;;20.90;90.00;;;;;;5047178;28;19913;-81
2022/10/31 09:05:45;;;;;;;;;;;20.70;89.60;;;;;;5046888;28;19948;-82
2022/10/31 09:08:11;;;;;;;;;;;20.90;89.60;;;;;;5024311;28;19975;-81
2022/10/31 09:10:37;;;;;;;;;;;20.60;90.00;;;;;;5030995;28;19935;-82
2022/10/31 09:13:05;;;;;;;;;;;20.60;89.40;;;;;;5035446;28;20455;-81
2022/10/31 09:15:32;;;;;;;;;;;20.60;90.00;;;;;;5032450;28;19931;-82
2022/10/31 09:17:57;;;;;;;;;;;20.50;89.90;;;;;;5032199;28;19917;-82
2022/10/31 09:20:23;;;;;;;;;;;20.70;90.00;;;;;;5029882;28;20474;-82
2022/10/31 09:22:57;;;;;;;;;;;20.90;89.50;;;;;;5013509;28;20540;-81
2022/10/31 09:25:23;;;;;;;;;;;20.90;89.70;;;;;;5033374;28;20065;-82
2022/10/31 09:27:49;;;;;;;;;;;20.50;90.30;;;;;;5042416;28;19966;-82
2022/10/31 09:30:14;;;;;;;;;;;20.60;89.90;;;;;;5036819;28;20228;-82
2022/10/31 09:32:40;;;;;;;;;;;20.70;90.00;;;;;;5023260;28;19912;-81
2022/10/31 09:35:06;;;;;;;;;;;20.90;89.10;;;;;;5029223;28;19917;-81
2022/10/31 09:37:31;;;;;;;;;;;20.80;89.70;;;;;;5040892;28;19942;-82
2022/10/31 09:39:57;;;;;;;;;;;20.80;88.80;;;;;;5036289;28;20102;-81
2022/10/31 09:42:31;;;;;;;;;;;20.60;90.00;;;;;;5046324;28;19912;-81
2022/10/31 09:44:59;;;;;;;;;;;20.60;90.00;;;;;;5042701;28;19967;-81
2022/10/31 09:47:31;;;;;;;;;;;21.10;88.20;;;;;;5028331;28;19917;-82
2022/10/31 09:50:15;;;;;;;;;;;21.20;87.90;;;;;;5046191;28;19912;-82
2022/10/31 09:52:44;;;;;;;;;;;21.30;87.40;;;;;;5029079;28;20473;-81
2022/10/31 09:55:10;;;;;;;;;;;21.30;88.60;;;;;;5040118;28;19921;-82
2022/10/31 09:57:36;;;;;;;;;;;21.20;88.60;;;;;;5028529;28;21223;-81
2022/10/31 10:00:05;;;;;;;;;;;21.10;87.60;;;;;;5030646;28;19913;-81
2022/10/31 10:02:39;;;;;;;;;;;20.90;88.90;;;;;;5031070;28;19947;-81
2022/10/31 10:05:19;;;;;;;;;;;21.10;88.90;;;;;;5029998;28;19924;-81
2022/10/31 10:07:53;;;;;;;;;;;21.00;88.60;;;;;;5028831;28;20106;-81
2022/10/31 10:10:31;;;;;;;;;;;20.90;88.00;;;;;;5029757;28;19913;-82
2022/10/31 10:13:04;;;;;;;;;;;21.10;87.70;;;;;;5044837;28;20023;-81
2022/10/31 10:15:33;;;;;;;;;;;21.30;87.30;;;;;;5038107;28;19935;-80
2022/10/31 10:18:37;;;;;;;;;;;21.40;87.70;;;;;;5032856;28;19944;-81
2022/10/31 10:21:08;;;;;;;;;;;21.60;87.20;;;;;;4925443;29;20469;-81
2022/10/31 10:23:52;;;;;;;;;;;21.60;86.40;;;;;;4921397;29;19922;-81
2022/10/31 10:26:19;;;;;;;;;;;21.70;86.30;;;;;;4988845;28;20162;-81
2022/10/31 10:28:49;;;;;;;;;;;21.90;85.30;;;;;;5029924;28;20733;-81
2022/10/31 10:31:16;;;;;;;;;;;21.60;85.40;;;;;;5031113;28;20372;-82
2022/10/31 10:33:53;;;;;;;;;;;21.60;86.40;;;;;;5027488;28;20397;-81
2022/10/31 10:36:26;;;;;;;;;;;21.50;85.40;;;;;;5035487;28;19960;-81
2022/10/31 10:38:51;;;;;;;;;;;21.50;85.30;;;;;;5030720;28;20231;-81
2022/10/31 10:41:19;;;;;;;;;;;21.80;85.10;;;;;;5015461;28;19960;-81
2022/10/31 10:43:44;;;;;;;;;;;21.80;84.20;;;;;;5031904;28;20459;-81
2022/10/31 10:48:59;;;;;;;;;;;21.90;83.90;;;;;;5050377;28;19955;-81
2022/10/31 10:51:28;;;;;;;;;;;21.90;84.40;;;;;;5025876;28;19963;-81
2022/10/31 10:54:03;;;;;;;;;;;21.90;84.50;;;;;;5023414;28;20402;-81
2022/10/31 10:56:47;;;;;;;;;;;22.10;83.90;;;;;;5038365;28;19913;-82
2022/10/31 10:59:16;;;;;;;;;;;22.00;84.70;;;;;;5047889;28;20662;-81
2022/10/31 11:01:41;;;;;;;;;;;22.10;84.30;;;;;;5050950;28;19917;-82
2022/10/31 11:04:27;;;;;;;;;;;22.00;82.60;;;;;;5051675;28;20477;-79
2022/10/31 11:06:56;;;;;;;;;;;22.00;83.80;;;;;;5031178;28;19924;-80
2022/10/31 11:09:22;;;;;;;;;;;22.00;84.20;;;;;;5030622;28;19918;-81
2022/10/31 11:11:47;;;;;;;;;;;22.00;85.40;;;;;;5029851;28;19935;-81
2022/10/31 11:14:15;;;;;;;;;;;21.90;83.40;;;;;;5032151;28;19920;-81
2022/10/31 11:16:45;;;;;;;;;;;21.90;83.30;;;;;;5033455;28;19917;-81
2022/10/31 11:19:17;;;;;;;;;;;22.00;82.70;;;;;;5016015;28;19913;-81
2022/10/31 11:21:44;;;;;;;;;;;21.90;83.70;;;;;;5033356;28;20005;-81
2022/10/31 11:24:10;;;;;;;;;;;22.10;83.60;;;;;;5033629;28;19977;-81
2022/10/31 11:26:39;;;;;;;;;;;21.90;82.90;;;;;;5035776;28;20440;-81
2022/10/31 11:29:05;;;;;;;;;;;22.00;83.30;;;;;;5029123;28;20454;-82
2022/10/31 11:31:32;;;;;;;;;;;21.90;83.40;;;;;;5039565;28;19986;-81
2022/10/31 11:34:00;;;;;;;;;;;21.90;84.50;;;;;;5048989;28;19913;-81
2022/10/31 11:36:31;;;;;;;;;;;21.90;83.40;;;;;;5048606;28;19921;-80
2022/10/31 11:38:57;;;;;;;;;;;22.00;81.60;;;;;;5039693;28;19967;-81
2022/10/31 11:41:29;;;;;;;;;;;22.00;80.50;;;;;;5048042;28;19917;-80
2022/10/31 11:44:18;;;;;;;;;;;22.20;80.50;;;;;;5046859;28;19913;-81
2022/10/31 11:46:48;;;;;;;;;;;22.40;81.40;;;;;;5044978;28;20331;-81
2022/10/31 11:49:20;;;;;;;;;;;22.50;80.50;;;;;;5049017;28;19935;-81
2022/10/31 11:51:53;;;;;;;;;;;22.30;80.20;;;;;;5047273;28;19912;-81
2022/10/31 11:54:21;;;;;;;;;;;22.30;80.50;;;;;;5047791;28;19979;-81
2022/10/31 11:56:47;;;;;;;;;;;22.50;81.40;;;;;;5047261;28;20451;-81
2022/10/31 11:59:26;;;;;;;;;;;22.90;79.30;;;;;;5030823;28;19916;-81
2022/10/31 12:01:52;;;;;;;;;;;23.00;78.40;;;;;;5040472;28;19913;-80
2022/10/31 12:04:18;;;;;;;;;;;22.90;78.20;;;;;;5049300;28;19921;-82
2022/10/31 12:06:45;;;;;;;;;;;22.80;77.90;;;;;;5048641;28;20418;-81
2022/10/31 12:09:20;;;;;;;;;;;22.80;78.50;;;;;;5049020;28;19951;-81
2022/10/31 12:11:54;;;;;;;;;;;22.70;78.00;;;;;;5048995;28;20164;-81
2022/10/31 12:14:33;;;;;;;;;;;22.60;78.70;;;;;;5048862;28;20685;-81
2022/10/31 12:17:04;;;;;;;;;;;22.60;78.00;;;;;;5049355;28;19935;-81
2022/10/31 12:19:35;;;;;;;;;;;22.50;78.40;;;;;;5050829;28;20593;-81
2022/10/31 12:22:04;;;;;;;;;;;22.40;78.20;;;;;;5026454;28;20397;-79
2022/10/31 12:24:29;;;;;;;;;;;22.50;77.80;;;;;;5036375;28;19928;-79
2022/10/31 12:27:14;;;;;;;;;;;22.50;77.10;;;;;;5048802;28;19916;-80
2022/10/31 12:29:39;;;;;;;;;;;22.50;77.30;;;;;;5048155;28;20455;-80
2022/10/31 12:32:21;;;;;;;;;;;22.50;77.90;;;;;;5047933;28;20294;-80
2022/10/31 12:34:46;;;;;;;;;;;22.40;77.90;;;;;;5041906;28;19921;-80
2022/10/31 12:37:17;;;;;;;;;;;22.40;77.60;;;;;;5029377;28;19917;-80
2022/10/31 12:40:01;;;;;;;;;;;22.50;77.50;;;;;;5047922;28;20383;-80
2022/10/31 12:42:33;;;;;;;;;;;22.50;77.40;;;;;;5048174;28;20721;-80
2022/10/31 12:45:13;;;;;;;;;;;22.40;77.80;;;;;;5027161;28;19931;-80
2022/10/31 12:47:57;;;;;;;;;;;22.40;77.90;;;;;;5041457;28;19927;-80
2022/10/31 12:50:27;;;;;;;;;;;22.40;77.90;;;;;;5037378;28;19923;-80
2022/10/31 12:53:01;;;;;;;;;;;22.50;77.40;;;;;;5047024;28;19917;-79
2022/10/31 12:55:30;;;;;;;;;;;22.60;77.40;;;;;;5033565;28;19920;-80
2022/10/31 12:58:02;;;;;;;;;;;22.60;77.00;;;;;;5011256;28;19913;-80
2022/10/31 13:00:28;;;;;;;;;;;22.70;76.90;;;;;;5010784;28;19913;-80
2022/10/31 13:03:09;;;;;;;;;;;22.70;77.40;;;;;;5031150;28;20435;-79
2022/10/31 13:05:40;;;;;;;;;;;22.70;77.80;;;;;;5029352;28;19924;-80
2022/10/31 13:08:08;;;;;;;;;;;22.70;76.60;;;;;;5012715;28;19917;-81
2022/10/31 13:10:40;;;;;;;;;;;22.80;76.70;;;;;;5031829;28;19920;-80
2022/10/31 13:13:08;;;;;;;;;;;22.80;75.90;;;;;;5038491;28;19924;-80
2022/10/31 13:15:41;;;;;;;;;;;22.90;75.70;;;;;;5041139;28;19925;-80
2022/10/31 13:18:10;;;;;;;;;;;22.90;75.70;;;;;;5025175;28;19913;-81
2022/10/31 13:20:41;;;;;;;;;;;22.90;76.00;;;;;;5030795;28;20071;-80
2022/10/31 13:23:14;;;;;;;;;;;22.90;75.20;;;;;;5015417;28;20404;-81
2022/10/31 13:25:44;;;;;;;;;;;23.00;75.30;;;;;;5022022;28;19909;-80
2022/10/31 13:28:20;;;;;;;;;;;22.90;76.50;;;;;;5031658;28;19924;-80
2022/10/31 13:30:47;;;;;;;;;;;22.80;75.80;;;;;;5017166;28;19917;-81
2022/10/31 13:33:21;;;;;;;;;;;22.70;76.70;;;;;;5044828;28;19927;-80
2022/10/31 13:36:07;;;;;;;;;;;22.70;76.00;;;;;;5047566;28;19913;-80
2022/10/31 13:38:44;;;;;;;;;;;22.70;75.90;;;;;;5028301;28;20007;-80
2022/10/31 13:41:30;;;;;;;;;;;22.80;75.90;;;;;;5047857;28;19920;-80
2022/10/31 13:44:02;;;;;;;;;;;22.80;75.70;;;;;;5032824;28;19917;-80
2022/10/31 13:46:30;;;;;;;;;;;22.80;75.90;;;;;;5015596;28;19920;-79
2022/10/31 13:48:56;;;;;;;;;;;22.70;76.20;;;;;;5035770;28;20037;-80
2022/10/31 13:51:28;;;;;;;;;;;22.80;76.30;;;;;;5036760;28;19979;-80
2022/10/31 13:53:53;;;;;;;;;;;22.80;76.40;;;;;;5012230;28;20446;-81
2022/10/31 13:56:27;;;;;;;;;;;22.70;76.50;;;;;;5030876;28;19909;-80
2022/10/31 13:59:05;;;;;;;;;;;22.70;76.60;;;;;;5011632;28;19951;-80
2022/10/31 14:01:31;;;;;;;;;;;22.80;76.50;;;;;;5029149;28;19921;-80
2022/10/31 14:03:58;;;;;;;;;;;22.90;76.10;;;;;;5029763;28;19913;-80
2022/10/31 14:06:34;;;;;;;;;;;22.80;76.10;;;;;;5031293;28;19920;-81
2022/10/31 14:09:00;;;;;;;;;;;22.80;76.50;;;;;;5017821;28;19985;-80
2022/10/31 14:11:27;;;;;;;;;;;22.60;76.50;;;;;;5033147;28;19920;-81
2022/10/31 14:13:55;;;;;;;;;;;22.60;76.50;;;;;;5034096;28;20304;-81
2022/10/31 14:16:28;;;;;;;;;;;22.50;77.20;;;;;;5034520;28;19931;-80
2022/10/31 14:18:59;;;;;;;;;;;22.50;76.90;;;;;;5034961;28;20396;-80
2022/10/31 14:21:24;;;;;;;;;;;22.50;76.30;;;;;;5036592;28;19913;-80
2022/10/31 14:23:50;;;;;;;;;;;22.40;76.80;;;;;;5034957;28;19928;-80
2022/10/31 14:26:28;;;;;;;;;;;22.30;77.10;;;;;;5015270;28;19950;-80